createdAt,value
2018-10-17T00:00:17.956Z,14.90
2018-10-17T00:01:18.016Z,15.30
2018-10-17T00:02:17.920Z,15.90
2018-10-17T00:03:17.909Z,15.70
2018-10-17T00:04:17.900Z,15.70
2018-10-17T00:05:17.921Z,15.80
2018-10-17T00:06:17.876Z,16.40
2018-10-17T00:07:17.867Z,16.30
2018-10-17T00:08:17.855Z,15.50
2018-10-17T00:09:17.852Z,15.30
2018-10-17T00:10:17.836Z,15.60
2018-10-17T00:11:17.852Z,15.50
2018-10-17T00:12:17.814Z,14.70
2018-10-17T00:13:17.795Z,15.90
2018-10-17T00:14:17.787Z,14.20
2018-10-17T00:15:17.778Z,15.40
2018-10-17T00:16:17.769Z,14.10
2018-10-17T00:17:17.769Z,14.60
2018-10-17T00:18:17.743Z,14.40
2018-10-17T00:19:17.732Z,14.90
2018-10-17T00:20:17.718Z,12.80
2018-10-17T00:21:17.716Z,12.20
2018-10-17T00:22:17.718Z,11.70
2018-10-17T00:23:17.690Z,13.20
2018-10-17T00:24:17.682Z,12.20
2018-10-17T00:25:17.668Z,12.10
2018-10-17T00:26:17.657Z,12.30
2018-10-17T00:27:17.671Z,11.40
2018-10-17T00:28:17.632Z,12.40
2018-10-17T00:29:17.727Z,11.80
2018-10-17T00:30:17.618Z,11.50
2018-10-17T00:31:17.601Z,10.80
2018-10-17T00:32:17.605Z,11.10
2018-10-17T00:33:17.583Z,10.10
2018-10-17T00:34:17.569Z,10.50
2018-10-17T00:35:17.626Z,12.00
2018-10-17T00:36:17.551Z,11.50
2018-10-17T00:37:17.560Z,10.20
2018-10-17T00:38:17.528Z,10.50
2018-10-17T00:39:17.516Z,10.40
2018-10-17T00:40:17.545Z,10.80
2018-10-17T00:41:17.590Z,10.80
2018-10-17T00:42:17.499Z,10.80
2018-10-17T00:43:17.588Z,10.50
2018-10-17T00:44:17.462Z,10.70
2018-10-17T00:45:17.445Z,10.40
2018-10-17T00:46:17.436Z,11.40
2018-10-17T00:47:17.444Z,10.00
2018-10-17T00:48:17.418Z,10.70
2018-10-17T00:49:17.400Z,10.80
2018-10-17T00:50:17.416Z,12.90
2018-10-17T00:51:17.383Z,11.00
2018-10-17T00:52:17.366Z,11.30
2018-10-17T00:53:17.366Z,11.80
2018-10-17T00:54:17.352Z,11.40
2018-10-17T00:55:17.342Z,10.70
2018-10-17T00:56:17.354Z,12.40
2018-10-17T00:57:17.311Z,12.60
2018-10-17T00:58:17.305Z,13.80
2018-10-17T00:59:17.293Z,12.40
2018-10-17T01:00:17.279Z,10.60
2018-10-17T01:01:17.375Z,11.60
2018-10-17T01:02:17.295Z,11.00
2018-10-17T01:03:17.247Z,11.30
2018-10-17T01:04:17.237Z,9.80
2018-10-17T01:05:17.230Z,11.20
2018-10-17T01:06:17.235Z,10.80
2018-10-17T01:07:17.202Z,11.70
2018-10-17T01:08:17.193Z,10.70
2018-10-17T01:09:17.183Z,10.10
2018-10-17T01:10:17.177Z,10.10
2018-10-17T01:11:17.165Z,12.00
2018-10-17T01:12:17.167Z,10.20
2018-10-17T01:13:17.138Z,9.80
2018-10-17T01:14:17.124Z,9.20
2018-10-17T01:15:17.113Z,9.80
2018-10-17T01:16:17.107Z,12.60
2018-10-17T01:17:17.113Z,9.20
2018-10-17T01:18:17.087Z,9.40
2018-10-17T01:19:17.068Z,9.10
2018-10-17T01:20:17.059Z,11.50
2018-10-17T01:21:17.052Z,8.80
2018-10-17T01:22:17.061Z,9.30
2018-10-17T01:23:17.149Z,9.40
2018-10-17T01:24:17.021Z,10.40
2018-10-17T01:25:17.005Z,8.30
2018-10-17T01:26:16.993Z,8.90
2018-10-17T01:27:16.997Z,8.50
2018-10-17T01:28:16.972Z,8.70
2018-10-17T01:29:17.078Z,9.10
2018-10-17T01:30:16.954Z,9.50
2018-10-17T01:31:17.049Z,8.60
2018-10-17T01:32:16.947Z,8.50
2018-10-17T01:33:16.923Z,7.40
2018-10-17T01:34:16.930Z,8.20
2018-10-17T01:35:16.914Z,9.30
2018-10-17T01:36:16.891Z,9.60
2018-10-17T01:37:16.923Z,8.30
2018-10-17T01:38:16.859Z,7.80
2018-10-17T01:39:16.848Z,8.30
2018-10-17T01:40:16.842Z,8.10
2018-10-17T01:41:16.971Z,8.70
2018-10-17T01:42:16.842Z,8.50
2018-10-17T01:43:16.894Z,8.50
2018-10-17T01:44:16.832Z,8.90
2018-10-17T01:45:16.785Z,11.00
2018-10-17T01:46:16.772Z,11.10
2018-10-17T01:47:16.914Z,9.70
2018-10-17T01:48:16.752Z,10.40
2018-10-17T01:49:16.754Z,9.70
2018-10-17T01:50:16.739Z,9.50
2018-10-17T01:51:16.718Z,9.10
2018-10-17T01:52:16.726Z,9.20
2018-10-17T01:53:16.700Z,9.50
2018-10-17T01:54:16.691Z,9.70
2018-10-17T01:55:16.680Z,9.70
2018-10-17T01:56:16.672Z,10.40
2018-10-17T01:57:16.681Z,9.80
2018-10-17T01:58:16.653Z,11.10
2018-10-17T01:59:16.630Z,11.60
2018-10-17T02:00:16.619Z,12.90
2018-10-17T02:01:16.612Z,12.00
2018-10-17T02:02:16.602Z,11.80
2018-10-17T02:03:16.611Z,10.90
2018-10-17T02:04:16.579Z,11.70
2018-10-17T02:05:16.652Z,12.30
2018-10-17T02:06:16.555Z,11.40
2018-10-17T02:07:16.620Z,9.90
2018-10-17T02:08:16.534Z,10.30
2018-10-17T02:09:16.520Z,9.70
2018-10-17T02:10:16.507Z,9.80
2018-10-17T02:11:16.594Z,9.30
2018-10-17T02:12:16.488Z,9.40
2018-10-17T02:13:16.501Z,9.00
2018-10-17T02:14:16.473Z,9.50
2018-10-17T02:15:16.459Z,8.90
2018-10-17T02:16:16.450Z,8.30
2018-10-17T02:17:16.539Z,8.00
2018-10-17T02:18:16.419Z,8.30
2018-10-17T02:19:16.428Z,9.50
2018-10-17T02:20:16.399Z,7.90
2018-10-17T02:21:16.401Z,8.10
2018-10-17T02:22:16.407Z,8.10
2018-10-17T02:23:16.404Z,8.10
2018-10-17T02:24:16.373Z,8.10
2018-10-17T02:25:16.431Z,8.30
2018-10-17T02:26:16.339Z,9.10
2018-10-17T02:27:16.344Z,9.00
2018-10-17T02:28:16.320Z,8.80
2018-10-17T02:29:16.351Z,10.40
2018-10-17T02:30:16.293Z,11.50
2018-10-17T02:31:16.389Z,10.50
2018-10-17T02:32:16.267Z,10.30
2018-10-17T02:33:16.282Z,11.10
2018-10-17T02:34:16.250Z,10.60
2018-10-17T02:35:16.426Z,11.00
2018-10-17T02:36:16.229Z,10.70
2018-10-17T02:37:16.389Z,10.30
2018-10-17T02:38:17.022Z,11.20
2018-10-17T02:39:16.717Z,10.20
2018-10-17T02:40:16.182Z,11.90
2018-10-17T02:41:16.215Z,9.70
2018-10-17T02:42:16.156Z,9.70
2018-10-17T02:43:16.248Z,9.40
2018-10-17T02:44:16.173Z,9.40
2018-10-17T02:45:16.128Z,8.90
2018-10-17T02:46:16.119Z,8.50
2018-10-17T02:47:16.180Z,8.20
2018-10-17T02:48:16.103Z,8.80
2018-10-17T02:49:16.182Z,7.60
2018-10-17T02:50:16.084Z,8.50
2018-10-17T02:51:16.056Z,8.00
2018-10-17T02:52:16.073Z,7.30
2018-10-17T02:53:16.141Z,6.80
2018-10-17T02:54:16.053Z,7.70
2018-10-17T02:55:16.080Z,7.80
2018-10-17T02:56:16.007Z,7.40
2018-10-17T02:57:15.995Z,7.70
2018-10-17T02:58:15.989Z,7.90
2018-10-17T02:59:16.057Z,9.40
2018-10-17T03:00:15.963Z,8.50
2018-10-17T03:01:16.038Z,8.30
2018-10-17T03:02:15.953Z,8.70
2018-10-17T03:03:15.926Z,8.70
2018-10-17T03:04:15.917Z,8.60
2018-10-17T03:05:16.056Z,8.80
2018-10-17T03:06:15.899Z,8.30
2018-10-17T03:07:15.993Z,8.80
2018-10-17T03:08:15.893Z,8.50
2018-10-17T03:09:15.862Z,8.70
2018-10-17T03:10:15.850Z,8.50
2018-10-17T03:11:15.951Z,9.70
2018-10-17T03:12:15.833Z,8.60
2018-10-17T03:13:15.914Z,8.00
2018-10-17T03:14:15.804Z,8.80
2018-10-17T03:15:15.793Z,9.60
2018-10-17T03:16:15.782Z,9.20
2018-10-17T03:17:15.845Z,7.90
2018-10-17T03:18:15.784Z,8.40
2018-10-17T03:19:15.763Z,8.70
2018-10-17T03:20:15.751Z,9.00
2018-10-17T03:21:15.727Z,11.40
2018-10-17T03:22:15.719Z,9.40
2018-10-17T03:23:15.769Z,10.20
2018-10-17T03:24:15.695Z,9.80
2018-10-17T03:25:15.775Z,8.60
2018-10-17T03:26:15.678Z,9.70
2018-10-17T03:27:15.665Z,9.30
2018-10-17T03:28:15.665Z,8.90
2018-10-17T03:29:15.779Z,9.50
2018-10-17T03:30:15.634Z,9.90
2018-10-17T03:31:15.716Z,10.80
2018-10-17T03:32:15.632Z,10.10
2018-10-17T03:33:15.597Z,9.70
2018-10-17T03:34:15.605Z,9.00
2018-10-17T03:35:15.654Z,9.60
2018-10-17T03:36:15.568Z,8.80
2018-10-17T03:37:15.712Z,9.10
2018-10-17T03:38:15.573Z,10.00
2018-10-17T03:39:15.541Z,9.80
2018-10-17T03:40:15.529Z,11.50
2018-10-17T03:41:15.655Z,9.70
2018-10-17T03:42:15.502Z,9.40
2018-10-17T03:43:15.632Z,9.20
2018-10-17T03:44:15.501Z,10.10
2018-10-17T03:45:15.467Z,9.30
2018-10-17T03:46:15.459Z,10.60
2018-10-17T03:47:15.571Z,9.90
2018-10-17T03:48:15.438Z,11.10
2018-10-17T03:49:15.452Z,10.60
2018-10-17T03:50:15.450Z,11.10
2018-10-17T03:51:15.408Z,12.80
2018-10-17T03:52:15.398Z,10.50
2018-10-17T03:53:15.597Z,10.60
2018-10-17T03:54:15.373Z,10.50
2018-10-17T03:55:15.372Z,11.30
2018-10-17T03:56:15.365Z,11.10
2018-10-17T03:57:15.345Z,11.40
2018-10-17T03:58:15.330Z,13.00
2018-10-17T03:59:15.459Z,11.10
2018-10-17T04:00:15.327Z,11.00
2018-10-17T04:01:15.306Z,12.60
2018-10-17T04:02:15.307Z,12.90
2018-10-17T04:03:15.412Z,12.60
2018-10-17T04:04:15.268Z,11.80
2018-10-17T04:05:15.367Z,13.50
2018-10-17T04:06:15.247Z,12.20
2018-10-17T04:07:15.328Z,14.60
2018-10-17T04:08:15.217Z,14.60
2018-10-17T04:09:15.213Z,13.00
2018-10-17T04:10:15.205Z,13.10
2018-10-17T04:11:15.296Z,15.00
2018-10-17T04:12:15.204Z,16.80
2018-10-17T04:13:15.211Z,16.90
2018-10-17T04:14:15.154Z,16.90
2018-10-17T04:15:15.164Z,16.20
2018-10-17T04:16:15.136Z,18.20
2018-10-17T04:17:15.257Z,18.90
2018-10-17T04:18:15.111Z,19.20
2018-10-17T04:19:15.205Z,17.90
2018-10-17T04:20:15.114Z,18.70
2018-10-17T04:21:15.086Z,18.00
2018-10-17T04:22:15.069Z,18.20
2018-10-17T04:23:15.202Z,19.30
2018-10-17T04:24:15.052Z,18.20
2018-10-17T04:25:15.103Z,19.30
2018-10-17T04:26:15.050Z,17.80
2018-10-17T04:27:15.013Z,19.10
2018-10-17T04:28:15.002Z,21.20
2018-10-17T04:29:15.128Z,20.80
2018-10-17T04:30:14.982Z,19.80
2018-10-17T04:31:15.145Z,21.70
2018-10-17T04:32:14.958Z,21.10
2018-10-17T04:33:14.952Z,19.60
2018-10-17T04:34:14.938Z,19.20
2018-10-17T04:35:14.964Z,17.10
2018-10-17T04:36:14.970Z,16.40
2018-10-17T04:37:14.957Z,16.50
2018-10-17T04:38:14.893Z,16.80
2018-10-17T04:39:14.883Z,20.20
2018-10-17T04:40:14.870Z,18.30
2018-10-17T04:41:14.942Z,16.00
2018-10-17T04:42:14.869Z,15.00
2018-10-17T04:43:14.922Z,14.70
2018-10-17T04:44:14.832Z,15.10
2018-10-17T04:45:14.834Z,15.60
2018-10-17T04:46:14.829Z,15.50
2018-10-17T04:47:14.901Z,16.00
2018-10-17T04:48:14.793Z,16.80
2018-10-17T04:49:14.855Z,15.50
2018-10-17T04:50:14.763Z,15.70
2018-10-17T04:51:14.760Z,14.30
2018-10-17T04:52:14.766Z,15.80
2018-10-17T04:53:14.865Z,15.00
2018-10-17T04:54:14.722Z,14.30
2018-10-17T04:55:14.789Z,15.40
2018-10-17T04:56:14.720Z,14.80
2018-10-17T04:57:14.684Z,15.20
2018-10-17T04:58:14.675Z,16.30
2018-10-17T04:59:14.778Z,14.60
2018-10-17T05:00:14.651Z,15.60
2018-10-17T05:01:14.718Z,15.60
2018-10-17T05:02:14.640Z,15.50
2018-10-17T05:03:14.621Z,14.50
2018-10-17T05:04:14.608Z,15.10
2018-10-17T05:05:14.710Z,15.60
2018-10-17T05:06:14.614Z,14.50
2018-10-17T05:07:14.609Z,16.70
2018-10-17T05:08:14.569Z,15.00
2018-10-17T05:09:14.574Z,14.20
2018-10-17T05:10:14.543Z,14.20
2018-10-17T05:11:14.628Z,13.60
2018-10-17T05:12:14.519Z,13.30
2018-10-17T05:13:14.642Z,13.50
2018-10-17T05:14:14.501Z,13.60
2018-10-17T05:15:14.513Z,13.30
2018-10-17T05:16:14.482Z,14.60
2018-10-17T05:17:14.533Z,14.50
2018-10-17T05:18:14.481Z,13.20
2018-10-17T05:19:14.567Z,13.60
2018-10-17T05:20:14.440Z,14.00
2018-10-17T05:21:14.419Z,13.60
2018-10-17T05:22:14.411Z,14.40
2018-10-17T05:23:14.489Z,14.50
2018-10-17T05:24:14.387Z,14.20
2018-10-17T05:25:14.502Z,16.10
2018-10-17T05:26:14.373Z,15.40
2018-10-17T05:27:14.359Z,13.80
2018-10-17T05:28:14.351Z,16.30
2018-10-17T05:29:14.496Z,15.60
2018-10-17T05:30:14.325Z,16.00
2018-10-17T05:31:14.352Z,17.70
2018-10-17T05:32:14.305Z,17.60
2018-10-17T05:33:14.296Z,16.80
2018-10-17T05:34:14.286Z,15.00
2018-10-17T05:35:14.319Z,15.80
2018-10-17T05:36:14.258Z,16.30
2018-10-17T05:37:14.357Z,16.80
2018-10-17T05:38:14.256Z,15.10
2018-10-17T05:39:14.230Z,15.80
2018-10-17T05:40:14.220Z,15.10
2018-10-17T05:41:14.312Z,15.30
2018-10-17T05:42:14.211Z,14.40
2018-10-17T05:43:14.273Z,15.10
2018-10-17T05:44:14.173Z,14.80
2018-10-17T05:45:14.168Z,13.60
2018-10-17T05:46:14.152Z,15.30
2018-10-17T05:47:14.279Z,13.70
2018-10-17T05:48:14.135Z,19.40
2018-10-17T05:49:14.208Z,13.00
2018-10-17T05:50:14.131Z,13.50
2018-10-17T05:51:14.120Z,12.70
2018-10-17T05:52:14.111Z,12.20
2018-10-17T05:53:14.184Z,13.00
2018-10-17T05:54:14.062Z,13.60
2018-10-17T05:55:14.134Z,12.00
2018-10-17T05:56:14.038Z,11.70
2018-10-17T05:57:14.036Z,11.90
2018-10-17T05:58:14.039Z,13.90
2018-10-17T05:59:14.138Z,11.20
2018-10-17T06:00:14.007Z,11.30
2018-10-17T06:01:14.167Z,12.00
2018-10-17T06:02:14.095Z,10.50
2018-10-17T06:03:13.987Z,11.20
2018-10-17T06:04:13.961Z,13.30
2018-10-17T06:05:14.005Z,12.20
2018-10-17T06:06:13.936Z,12.50
2018-10-17T06:07:14.056Z,12.70
2018-10-17T06:08:13.918Z,12.30
2018-10-17T06:09:13.904Z,11.80
2018-10-17T06:10:13.956Z,12.50
2018-10-17T06:11:14.011Z,10.70
2018-10-17T06:12:13.904Z,11.50
2018-10-17T06:13:13.975Z,10.90
2018-10-17T06:14:13.855Z,11.10
2018-10-17T06:15:13.845Z,10.90
2018-10-17T06:16:13.873Z,11.20
2018-10-17T06:17:13.848Z,11.30
2018-10-17T06:18:13.816Z,11.10
2018-10-17T06:19:13.963Z,11.00
2018-10-17T06:20:13.789Z,11.70
2018-10-17T06:21:13.767Z,11.20
2018-10-17T06:22:13.780Z,12.40
2018-10-17T06:23:13.817Z,13.70
2018-10-17T06:24:13.740Z,11.20
2018-10-17T06:25:13.803Z,11.90
2018-10-17T06:26:13.722Z,12.90
2018-10-17T06:27:13.720Z,12.90
2018-10-17T06:28:13.729Z,13.30
2018-10-17T06:29:13.745Z,14.10
2018-10-17T06:30:13.673Z,12.60
2018-10-17T06:31:13.744Z,13.00
2018-10-17T06:32:13.691Z,14.50
2018-10-17T06:33:13.657Z,12.90
2018-10-17T06:34:13.818Z,13.80
2018-10-17T06:35:13.689Z,14.20
2018-10-17T06:36:13.603Z,12.90
2018-10-17T06:37:13.652Z,13.60
2018-10-17T06:38:13.602Z,14.50
2018-10-17T06:39:13.580Z,12.60
2018-10-17T06:40:13.557Z,13.50
2018-10-17T06:41:13.831Z,12.80
2018-10-17T06:42:13.565Z,12.50
2018-10-17T06:43:13.605Z,11.30
2018-10-17T06:44:13.520Z,13.40
2018-10-17T06:45:13.505Z,12.70
2018-10-17T06:46:13.495Z,12.50
2018-10-17T06:47:13.587Z,13.30
2018-10-17T06:48:13.504Z,12.10
2018-10-17T06:49:13.506Z,13.80
2018-10-17T06:50:13.452Z,12.30
2018-10-17T06:51:13.496Z,13.80
2018-10-17T06:52:13.487Z,17.90
2018-10-17T06:53:13.496Z,23.20
2018-10-17T06:54:13.508Z,35.10
2018-10-17T06:55:13.483Z,42.60
2018-10-17T06:56:13.389Z,33.20
2018-10-17T06:57:13.392Z,25.50
2018-10-17T06:58:13.362Z,20.40
2018-10-17T06:59:13.415Z,24.60
2018-10-17T07:00:13.361Z,14.90
2018-10-17T07:01:13.455Z,14.80
2018-10-17T07:02:13.401Z,14.10
2018-10-17T07:03:13.337Z,13.20
2018-10-17T07:04:13.306Z,13.60
2018-10-17T07:05:13.395Z,13.00
2018-10-17T07:06:13.275Z,13.10
2018-10-17T07:07:13.348Z,14.90
2018-10-17T07:08:13.286Z,15.70
2018-10-17T07:09:13.272Z,13.60
2018-10-17T07:10:13.241Z,14.40
2018-10-17T07:11:13.290Z,12.30
2018-10-17T07:12:13.206Z,14.20
2018-10-17T07:13:13.348Z,14.40
2018-10-17T07:14:13.196Z,14.10
2018-10-17T07:15:13.217Z,14.50
2018-10-17T07:16:13.170Z,16.40
2018-10-17T07:17:13.236Z,12.80
2018-10-17T07:18:13.162Z,13.80
2018-10-17T07:19:13.263Z,13.00
2018-10-17T07:20:13.117Z,11.70
2018-10-17T07:21:13.114Z,11.80
2018-10-17T07:22:13.099Z,12.80
2018-10-17T07:23:13.144Z,10.50
2018-10-17T07:24:13.080Z,13.10
2018-10-17T07:25:13.070Z,10.40
2018-10-17T07:26:13.081Z,10.10
2018-10-17T07:27:13.046Z,10.10
2018-10-17T07:28:13.036Z,10.80
2018-10-17T07:29:13.095Z,10.40
2018-10-17T07:30:13.011Z,10.90
2018-10-17T07:31:13.076Z,11.10
2018-10-17T07:32:13.003Z,12.70
2018-10-17T07:33:12.985Z,10.50
2018-10-17T07:34:12.993Z,11.70
2018-10-17T07:35:12.964Z,15.20
2018-10-17T07:36:13.038Z,12.50
2018-10-17T07:37:12.935Z,12.30
2018-10-17T07:38:12.927Z,13.40
2018-10-17T07:39:12.920Z,13.60
2018-10-17T07:40:12.924Z,11.30
2018-10-17T07:41:12.891Z,11.60
2018-10-17T07:42:12.915Z,12.70
2018-10-17T07:43:12.890Z,12.10
2018-10-17T07:44:12.878Z,13.10
2018-10-17T07:45:12.849Z,12.40
2018-10-17T07:46:12.847Z,11.90
2018-10-17T07:47:12.825Z,13.90
2018-10-17T07:48:12.905Z,12.30
2018-10-17T07:49:12.841Z,12.40
2018-10-17T07:50:12.814Z,14.50
2018-10-17T07:51:12.822Z,11.70
2018-10-17T07:52:12.772Z,12.70
2018-10-17T07:53:12.933Z,15.60
2018-10-17T07:54:12.953Z,14.30
2018-10-17T07:55:12.741Z,15.50
2018-10-17T07:56:12.766Z,12.70
2018-10-17T07:57:12.727Z,12.80
2018-10-17T07:58:12.726Z,14.80
2018-10-17T07:59:12.690Z,14.10
2018-10-17T08:00:12.799Z,14.10
2018-10-17T08:01:12.679Z,13.30
2018-10-17T08:02:12.664Z,15.80
2018-10-17T08:03:12.686Z,14.10
2018-10-17T08:04:12.641Z,14.70
2018-10-17T08:05:12.630Z,13.40
2018-10-17T08:06:12.757Z,13.00
2018-10-17T08:07:12.603Z,14.50
2018-10-17T08:08:12.593Z,14.50
2018-10-17T08:09:12.627Z,16.80
2018-10-17T08:10:12.580Z,14.00
2018-10-17T08:11:12.566Z,14.30
2018-10-17T08:12:12.637Z,13.40
2018-10-17T08:13:12.542Z,17.60
2018-10-17T08:14:12.584Z,12.50
2018-10-17T08:15:12.520Z,13.10
2018-10-17T08:16:12.513Z,13.20
2018-10-17T08:17:12.495Z,14.20
2018-10-17T08:18:12.566Z,15.20
2018-10-17T08:19:12.471Z,16.60
2018-10-17T08:20:12.480Z,15.80
2018-10-17T08:21:12.493Z,14.90
2018-10-17T08:22:12.444Z,17.90
2018-10-17T08:23:12.451Z,13.50
2018-10-17T08:24:12.507Z,15.40
2018-10-17T08:25:12.407Z,14.90
2018-10-17T08:26:12.394Z,13.60
2018-10-17T08:27:12.437Z,14.50
2018-10-17T08:28:12.393Z,16.40
2018-10-17T08:29:12.365Z,14.30
2018-10-17T08:30:12.492Z,15.60
2018-10-17T08:31:12.339Z,14.40
2018-10-17T08:32:12.335Z,12.80
2018-10-17T08:33:12.329Z,15.70
2018-10-17T08:34:12.348Z,13.70
2018-10-17T08:35:12.360Z,13.00
2018-10-17T08:36:12.632Z,11.40
2018-10-17T08:37:12.725Z,10.90
2018-10-17T08:38:12.300Z,10.50
2018-10-17T08:39:12.255Z,12.30
2018-10-17T08:40:12.260Z,11.40
2018-10-17T08:41:12.377Z,12.00
2018-10-17T08:42:12.250Z,10.40
2018-10-17T08:43:12.231Z,11.50
2018-10-17T08:44:12.323Z,11.90
2018-10-17T08:45:12.270Z,13.60
2018-10-17T08:46:12.174Z,11.40
2018-10-17T08:47:12.177Z,12.20
2018-10-17T08:48:12.182Z,12.30
2018-10-17T08:49:12.148Z,11.10
2018-10-17T08:50:12.297Z,10.90
2018-10-17T08:51:12.130Z,13.80
2018-10-17T08:52:12.113Z,12.20
2018-10-17T08:53:12.106Z,13.20
2018-10-17T08:54:12.113Z,11.80
2018-10-17T08:55:12.085Z,10.30
2018-10-17T08:56:12.093Z,11.50
2018-10-17T08:57:12.061Z,12.50
2018-10-17T08:58:12.070Z,11.80
2018-10-17T08:59:12.065Z,10.80
2018-10-17T09:00:12.024Z,10.80
2018-10-17T09:01:12.016Z,11.60
2018-10-17T09:02:12.123Z,12.40
2018-10-17T09:03:11.989Z,9.70
2018-10-17T09:04:12.005Z,11.00
2018-10-17T09:05:11.982Z,10.90
2018-10-17T09:06:12.118Z,10.00
2018-10-17T09:07:11.952Z,11.60
2018-10-17T09:08:11.960Z,9.50
2018-10-17T09:09:11.925Z,9.60
2018-10-17T09:10:11.935Z,11.20
2018-10-17T09:11:11.900Z,9.60
2018-10-17T09:12:11.975Z,10.30
2018-10-17T09:13:11.883Z,9.80
2018-10-17T09:14:11.991Z,11.50
2018-10-17T09:15:11.900Z,10.80
2018-10-17T09:16:11.946Z,10.10
2018-10-17T09:17:11.837Z,9.60
2018-10-17T09:18:11.879Z,8.30
2018-10-17T09:19:11.843Z,10.60
2018-10-17T09:20:12.172Z,10.50
2018-10-17T09:21:12.147Z,11.10
2018-10-17T09:22:12.197Z,10.30
2018-10-17T09:23:11.777Z,9.00
2018-10-17T09:24:11.919Z,10.20
2018-10-17T09:25:11.810Z,10.60
2018-10-17T09:26:11.763Z,10.40
2018-10-17T09:27:11.732Z,10.00
2018-10-17T09:28:11.810Z,9.00
2018-10-17T09:29:11.726Z,13.40
2018-10-17T09:30:11.736Z,9.50
2018-10-17T09:31:11.706Z,10.60
2018-10-17T09:32:11.672Z,10.40
2018-10-17T09:33:11.665Z,9.00
2018-10-17T09:34:11.729Z,10.30
2018-10-17T09:35:11.714Z,8.80
2018-10-17T09:36:11.703Z,10.20
2018-10-17T09:37:11.635Z,11.50
2018-10-17T09:38:11.609Z,10.00
2018-10-17T09:39:11.615Z,10.60
2018-10-17T09:40:11.662Z,13.70
2018-10-17T09:41:11.600Z,10.10
2018-10-17T09:42:11.654Z,12.90
2018-10-17T09:43:11.574Z,11.10
2018-10-17T09:44:11.556Z,19.70
2018-10-17T09:45:11.529Z,19.00
2018-10-17T09:46:11.566Z,26.40
2018-10-17T09:47:11.513Z,20.60
2018-10-17T09:48:11.590Z,15.80
2018-10-17T09:49:11.512Z,15.00
2018-10-17T09:50:11.544Z,12.30
2018-10-17T09:51:11.465Z,13.30
2018-10-17T09:52:11.545Z,10.20
2018-10-17T09:53:11.447Z,13.00
2018-10-17T09:54:11.581Z,10.90
2018-10-17T09:55:11.433Z,10.80
2018-10-17T09:56:11.408Z,10.30
2018-10-17T09:57:11.400Z,12.00
2018-10-17T09:58:11.429Z,10.40
2018-10-17T09:59:11.410Z,9.00
2018-10-17T10:00:11.475Z,9.80
2018-10-17T10:01:11.377Z,9.00
2018-10-17T10:02:11.418Z,10.70
2018-10-17T10:03:11.332Z,11.10
2018-10-17T10:04:11.416Z,14.30
2018-10-17T10:05:11.342Z,10.90
2018-10-17T10:06:11.357Z,10.60
2018-10-17T10:07:11.285Z,10.00
2018-10-17T10:08:11.282Z,9.90
2018-10-17T10:09:11.268Z,11.40
2018-10-17T10:10:11.361Z,10.60
2018-10-17T10:11:11.329Z,10.00
2018-10-17T10:12:11.259Z,11.10
2018-10-17T10:13:11.221Z,10.90
2018-10-17T10:14:11.240Z,12.10
2018-10-17T10:15:11.198Z,10.50
2018-10-17T10:16:11.332Z,8.20
2018-10-17T10:17:11.238Z,9.90
2018-10-17T10:18:11.174Z,7.90
2018-10-17T10:19:11.161Z,10.10
2018-10-17T10:20:11.152Z,8.70
2018-10-17T10:21:11.135Z,10.10
2018-10-17T10:22:11.208Z,10.80
2018-10-17T10:23:11.187Z,9.60
2018-10-17T10:24:11.223Z,10.10
2018-10-17T10:25:11.104Z,9.40
2018-10-17T10:26:11.106Z,8.00
2018-10-17T10:27:11.069Z,9.70
2018-10-17T10:28:11.125Z,8.30
2018-10-17T10:29:11.053Z,8.70
2018-10-17T10:30:11.055Z,8.00
2018-10-17T10:31:11.033Z,10.00
2018-10-17T10:32:11.036Z,11.60
2018-10-17T10:33:11.006Z,14.90
2018-10-17T10:34:11.039Z,12.70
2018-10-17T10:35:10.982Z,7.50
2018-10-17T10:36:11.091Z,9.70
2018-10-17T10:37:10.985Z,7.70
2018-10-17T10:38:10.956Z,7.20
2018-10-17T10:39:10.938Z,6.90
2018-10-17T10:40:10.970Z,7.10
2018-10-17T10:41:10.920Z,8.00
2018-10-17T10:42:11.027Z,7.50
2018-10-17T10:43:10.907Z,7.70
2018-10-17T10:44:10.999Z,9.10
2018-10-17T10:45:11.035Z,8.70
2018-10-17T10:46:10.890Z,6.90
2018-10-17T10:47:10.865Z,7.50
2018-10-17T10:48:10.911Z,9.40
2018-10-17T10:49:10.846Z,7.10
2018-10-17T10:50:10.937Z,9.50
2018-10-17T10:51:10.973Z,8.90
2018-10-17T10:52:10.839Z,7.70
2018-10-17T10:53:10.792Z,7.90
2018-10-17T10:54:10.846Z,9.40
2018-10-17T10:55:10.782Z,8.50
2018-10-17T10:56:10.858Z,9.40
2018-10-17T10:57:10.837Z,7.40
2018-10-17T10:58:10.818Z,10.10
2018-10-17T10:59:10.815Z,8.60
2018-10-17T11:00:10.755Z,8.10
2018-10-17T11:01:10.706Z,7.10
2018-10-17T11:02:10.857Z,8.20
2018-10-17T11:03:10.742Z,8.80
2018-10-17T11:04:10.680Z,9.30
2018-10-17T11:05:10.759Z,8.60
2018-10-17T11:06:10.653Z,8.50
2018-10-17T11:07:10.661Z,7.30
2018-10-17T11:08:10.728Z,8.80
2018-10-17T11:09:10.621Z,8.10
2018-10-17T11:10:10.612Z,7.70
2018-10-17T11:11:10.626Z,9.00
2018-10-17T11:12:10.587Z,7.80
2018-10-17T11:13:10.594Z,7.40
2018-10-17T11:14:10.840Z,8.50
2018-10-17T11:15:10.558Z,8.10
2018-10-17T11:16:10.546Z,8.60
2018-10-17T11:17:10.607Z,9.60
2018-10-17T11:18:10.525Z,8.30
2018-10-17T11:19:10.525Z,8.50
2018-10-17T11:20:10.501Z,8.00
2018-10-17T11:21:10.609Z,8.20
2018-10-17T11:22:10.481Z,10.10
2018-10-17T11:23:10.574Z,9.60
2018-10-17T11:24:10.477Z,8.60
2018-10-17T11:25:10.447Z,10.20
2018-10-17T11:26:10.429Z,9.90
2018-10-17T11:27:10.553Z,10.10
2018-10-17T11:28:10.416Z,8.10
2018-10-17T11:29:10.496Z,9.30
2018-10-17T11:30:10.387Z,8.70
2018-10-17T11:31:10.378Z,10.00
2018-10-17T11:32:10.372Z,9.80
2018-10-17T11:33:10.445Z,8.60
2018-10-17T11:34:10.378Z,9.60
2018-10-17T11:35:10.429Z,9.30
2018-10-17T11:36:10.336Z,9.10
2018-10-17T11:37:10.687Z,9.50
2018-10-17T11:38:10.325Z,9.50
2018-10-17T11:39:10.437Z,8.00
2018-10-17T11:40:10.417Z,7.30
2018-10-17T11:41:10.341Z,14.20
2018-10-17T11:42:10.308Z,8.70
2018-10-17T11:43:10.269Z,9.00
2018-10-17T11:44:10.247Z,7.80
2018-10-17T11:45:10.349Z,9.00
2018-10-17T11:46:10.256Z,10.30
2018-10-17T11:47:10.313Z,8.00
2018-10-17T11:48:10.220Z,9.30
2018-10-17T11:49:10.212Z,7.90
2018-10-17T11:50:10.177Z,9.00
2018-10-17T11:51:10.221Z,8.60
2018-10-17T11:52:10.156Z,10.50
2018-10-17T11:53:10.287Z,11.50
2018-10-17T11:54:10.139Z,9.20
2018-10-17T11:55:10.132Z,8.00
2018-10-17T11:56:10.125Z,11.00
2018-10-17T11:57:10.279Z,10.90
2018-10-17T11:58:10.110Z,8.30
2018-10-17T11:59:10.193Z,8.30
2018-10-17T12:00:10.081Z,8.20
2018-10-17T12:01:10.058Z,8.90
2018-10-17T12:02:10.050Z,9.30
2018-10-17T12:03:10.103Z,7.80
2018-10-17T12:04:10.278Z,10.30
2018-10-17T12:05:10.264Z,11.10
2018-10-17T12:06:10.083Z,8.80
2018-10-17T12:07:10.006Z,7.70
2018-10-17T12:08:10.039Z,8.30
2018-10-17T12:09:10.006Z,9.00
2018-10-17T12:10:09.964Z,8.60
2018-10-17T12:11:11.194Z,8.20
2018-10-17T12:12:09.946Z,9.10
2018-10-17T12:13:09.938Z,11.50
2018-10-17T12:14:09.943Z,8.00
2018-10-17T12:15:10.008Z,7.40
2018-10-17T12:16:09.899Z,7.50
2018-10-17T12:17:09.900Z,8.60
2018-10-17T12:18:10.061Z,7.60
2018-10-17T12:19:09.960Z,9.20
2018-10-17T12:20:09.864Z,7.70
2018-10-17T12:21:09.868Z,10.30
2018-10-17T12:22:09.840Z,8.40
2018-10-17T12:23:09.830Z,7.70
2018-10-17T12:24:10.110Z,8.20
2018-10-17T12:25:09.828Z,9.20
2018-10-17T12:26:09.798Z,8.10
2018-10-17T12:27:09.802Z,7.80
2018-10-17T12:28:09.988Z,10.40
2018-10-17T12:29:09.756Z,8.80
2018-10-17T12:30:09.791Z,8.40
2018-10-17T12:31:09.739Z,10.90
2018-10-17T12:32:09.731Z,14.50
2018-10-17T12:33:09.807Z,9.40
2018-10-17T12:34:09.730Z,8.20
2018-10-17T12:35:09.746Z,8.30
2018-10-17T12:36:09.683Z,10.40
2018-10-17T12:37:09.677Z,11.30
2018-10-17T12:38:09.687Z,8.10
2018-10-17T12:39:09.736Z,9.80
2018-10-17T12:40:09.797Z,9.40
2018-10-17T12:41:09.802Z,8.90
2018-10-17T12:42:09.621Z,9.30
2018-10-17T12:43:09.640Z,8.10
2018-10-17T12:44:09.705Z,9.40
2018-10-17T12:45:09.655Z,9.40
2018-10-17T12:46:09.597Z,9.80
2018-10-17T12:47:09.635Z,8.50
2018-10-17T12:48:09.594Z,10.90
2018-10-17T12:49:09.625Z,12.40
2018-10-17T12:50:09.597Z,7.40
2018-10-17T12:51:09.526Z,9.50
2018-10-17T12:52:09.640Z,8.70
2018-10-17T12:53:09.622Z,8.10
2018-10-17T12:54:09.510Z,9.00
2018-10-17T12:55:09.513Z,9.40
2018-10-17T12:56:09.504Z,8.80
2018-10-17T12:57:09.466Z,6.80
2018-10-17T12:58:09.457Z,9.80
2018-10-17T12:59:09.532Z,7.90
2018-10-17T13:00:09.434Z,8.80
2018-10-17T13:01:09.472Z,8.80